createdAt,value
2023-05-04T00:00:46.363Z,10.30
2023-05-04T00:03:18.233Z,9.90
2023-05-04T00:05:50.084Z,8.77
2023-05-04T00:08:21.761Z,9.47
2023-05-04T00:10:54.424Z,9.57
2023-05-04T00:13:26.140Z,8.93
2023-05-04T00:15:57.852Z,10.20
2023-05-04T00:18:29.683Z,13.13
2023-05-04T00:21:01.480Z,8.70
2023-05-04T00:23:33.178Z,11.27
2023-05-04T00:26:04.894Z,9.27
2023-05-04T00:28:36.732Z,9.07
2023-05-04T00:31:08.494Z,9.80
2023-05-04T00:33:40.208Z,15.53
2023-05-04T00:36:13.879Z,9.33
2023-05-04T00:38:52.621Z,24.63
2023-05-04T00:41:24.406Z,9.00
2023-05-04T00:43:56.137Z,8.90
2023-05-04T00:46:27.950Z,8.47
2023-05-04T00:48:59.942Z,9.40
2023-05-04T00:51:32.549Z,8.70
2023-05-04T00:54:05.046Z,9.80
2023-05-04T00:56:42.139Z,9.77
2023-05-04T00:59:13.990Z,10.07
2023-05-04T01:01:45.885Z,9.03
2023-05-04T01:04:17.712Z,10.27
2023-05-04T01:07:06.700Z,12.20
2023-05-04T01:09:47.235Z,9.87
2023-05-04T01:12:37.162Z,10.27
2023-05-04T01:15:10.196Z,9.73
2023-05-04T01:17:41.911Z,11.00
2023-05-04T01:20:14.043Z,13.63
2023-05-04T01:22:45.969Z,10.07
2023-05-04T01:25:18.400Z,10.90
2023-05-04T01:28:07.702Z,12.97
2023-05-04T01:30:49.184Z,10.17
2023-05-04T01:33:21.770Z,11.47
2023-05-04T01:35:53.568Z,13.17
2023-05-04T01:38:25.359Z,11.77
2023-05-04T01:40:57.248Z,12.67
2023-05-04T01:43:29.021Z,10.13
2023-05-04T01:46:01.019Z,9.43
2023-05-04T01:48:32.910Z,12.00
2023-05-04T01:51:04.840Z,12.80
2023-05-04T01:53:36.578Z,12.93
2023-05-04T01:56:09.429Z,10.07
2023-05-04T01:58:41.188Z,11.73
2023-05-04T02:01:12.901Z,14.47
2023-05-04T02:03:44.982Z,10.47
2023-05-04T02:06:17.151Z,13.10
2023-05-04T02:08:48.871Z,11.70
2023-05-04T02:11:21.043Z,11.10
2023-05-04T02:13:52.811Z,12.13
2023-05-04T02:16:24.572Z,13.93
2023-05-04T02:18:56.409Z,12.03
2023-05-04T02:21:29.468Z,12.70
2023-05-04T02:24:01.321Z,12.30
2023-05-04T02:26:33.193Z,14.37
2023-05-04T02:29:06.000Z,13.57
2023-05-04T02:31:37.724Z,13.13
2023-05-04T02:34:09.495Z,12.73
2023-05-04T02:36:41.213Z,14.90
2023-05-04T02:39:13.112Z,11.57
2023-05-04T02:41:44.973Z,13.60
2023-05-04T02:44:16.645Z,14.57
2023-05-04T02:46:48.332Z,14.00
2023-05-04T02:49:20.071Z,14.45
2023-05-04T02:51:51.813Z,15.03
2023-05-04T02:54:23.520Z,13.73
2023-05-04T02:56:55.575Z,19.60
2023-05-04T02:59:27.325Z,17.17
2023-05-04T03:01:59.092Z,18.83
2023-05-04T03:04:31.090Z,17.40
2023-05-04T03:07:02.810Z,18.10
2023-05-04T03:09:34.562Z,14.63
2023-05-04T03:12:06.455Z,18.90
2023-05-04T03:14:38.185Z,17.30
2023-05-04T03:17:09.869Z,20.20
2023-05-04T03:19:42.017Z,18.77
2023-05-04T03:22:13.722Z,17.40
2023-05-04T03:24:45.515Z,18.87
2023-05-04T03:27:17.332Z,15.17
2023-05-04T03:29:49.094Z,16.47
2023-05-04T03:32:21.029Z,18.50
2023-05-04T03:34:52.788Z,20.00
2023-05-04T03:37:24.913Z,20.00
2023-05-04T03:39:56.630Z,18.47
2023-05-04T03:42:28.511Z,20.00
2023-05-04T03:45:02.379Z,19.48
2023-05-04T03:47:35.597Z,21.30
2023-05-04T03:50:08.000Z,19.90
2023-05-04T03:52:39.755Z,19.40
2023-05-04T03:55:11.503Z,24.37
2023-05-04T03:57:43.213Z,18.13
2023-05-04T04:00:15.828Z,21.67
2023-05-04T04:02:47.644Z,26.97
2023-05-04T04:05:19.533Z,19.93
2023-05-04T04:07:51.236Z,24.20
2023-05-04T04:10:23.006Z,24.03
2023-05-04T04:12:54.874Z,23.57
2023-05-04T04:15:27.050Z,22.03
2023-05-04T04:17:58.911Z,30.60
2023-05-04T04:20:30.944Z,21.60
2023-05-04T04:23:04.026Z,22.80
2023-05-04T04:25:35.675Z,23.87
2023-05-04T04:28:07.659Z,25.10
2023-05-04T04:30:39.513Z,27.50
2023-05-04T04:33:11.987Z,24.10
2023-05-04T04:35:44.204Z,23.87
2023-05-04T04:38:16.003Z,28.00
2023-05-04T04:40:47.891Z,24.65
2023-05-04T04:43:19.570Z,26.93
2023-05-04T04:45:51.335Z,26.67
2023-05-04T04:48:23.567Z,23.67
2023-05-04T04:50:55.343Z,24.07
2023-05-04T04:53:27.085Z,22.20
2023-05-04T04:55:58.757Z,23.83
2023-05-04T04:58:30.521Z,22.37
2023-05-04T05:01:04.653Z,20.80
2023-05-04T05:03:36.490Z,24.40
2023-05-04T05:06:08.142Z,19.40
2023-05-04T05:08:41.825Z,20.30
2023-05-04T05:11:13.551Z,21.40
2023-05-04T05:13:45.376Z,25.35
2023-05-04T05:16:17.132Z,23.60
2023-05-04T05:18:48.870Z,25.03
2023-05-04T05:21:20.683Z,23.27
2023-05-04T05:23:52.384Z,30.77
2023-05-04T05:26:24.790Z,23.73
2023-05-04T05:28:56.950Z,25.70
2023-05-04T05:31:28.783Z,24.57
2023-05-04T05:34:00.564Z,25.93
2023-05-04T05:36:32.671Z,32.33
2023-05-04T05:39:04.445Z,26.93
2023-05-04T05:41:36.212Z,25.70
2023-05-04T05:44:07.930Z,23.03
2023-05-04T05:46:39.833Z,28.13
2023-05-04T05:49:11.823Z,25.30
2023-05-04T05:51:43.623Z,25.33
2023-05-04T05:54:15.659Z,21.30
2023-05-04T05:56:47.447Z,21.10
2023-05-04T05:59:19.182Z,26.57
2023-05-04T06:01:51.361Z,22.50
2023-05-04T06:04:23.239Z,20.03
2023-05-04T06:06:55.039Z,24.43
2023-05-04T06:09:27.054Z,24.70
2023-05-04T06:11:59.183Z,24.52
2023-05-04T06:14:30.957Z,20.23
2023-05-04T06:17:02.737Z,17.53
2023-05-04T06:19:36.341Z,22.67
2023-05-04T06:22:08.280Z,20.77
2023-05-04T06:24:40.080Z,21.10
2023-05-04T06:27:11.841Z,17.67
2023-05-04T06:29:43.626Z,23.90
2023-05-04T06:32:15.558Z,20.20
2023-05-04T06:34:47.358Z,25.93
2023-05-04T06:37:19.493Z,22.50
2023-05-04T06:39:51.281Z,17.43
2023-05-04T06:42:23.094Z,17.73
2023-05-04T06:44:54.840Z,19.93
2023-05-04T06:47:26.692Z,20.20
2023-05-04T06:49:58.904Z,21.27
2023-05-04T06:52:30.590Z,22.60
2023-05-04T06:55:02.516Z,22.87
2023-05-04T06:57:34.478Z,21.00
2023-05-04T07:00:08.413Z,19.70
2023-05-04T07:02:40.246Z,17.57
2023-05-04T07:05:12.084Z,21.00
2023-05-04T07:07:43.864Z,19.80
2023-05-04T07:10:16.622Z,17.23
2023-05-04T07:12:49.077Z,16.13
2023-05-04T07:15:21.198Z,15.83
2023-05-04T07:17:53.030Z,16.57
2023-05-04T07:20:26.509Z,16.87
2023-05-04T07:22:58.357Z,17.57
2023-05-04T07:25:31.073Z,15.87
2023-05-04T07:28:02.858Z,17.83
2023-05-04T07:30:34.583Z,15.00
2023-05-04T07:33:06.474Z,19.90
2023-05-04T07:35:38.185Z,14.50
2023-05-04T07:38:10.007Z,15.90
2023-05-04T07:40:41.686Z,15.60
2023-05-04T07:43:13.476Z,15.27
2023-05-04T07:45:45.230Z,14.03
2023-05-04T07:48:18.217Z,14.00
2023-05-04T07:50:50.367Z,13.20
2023-05-04T07:53:22.225Z,11.67
2023-05-04T07:56:01.030Z,16.70
2023-05-04T07:58:32.878Z,12.13
2023-05-04T08:01:04.861Z,13.70
2023-05-04T08:03:36.624Z,14.00
2023-05-04T08:06:08.778Z,15.80
2023-05-04T08:08:40.772Z,12.53
2023-05-04T08:11:20.679Z,12.43
2023-05-04T08:13:52.945Z,12.10
2023-05-04T08:16:24.736Z,12.50
2023-05-04T08:18:57.143Z,10.97
2023-05-04T08:21:28.989Z,12.27
2023-05-04T08:24:00.898Z,12.37
2023-05-04T08:26:33.118Z,12.63
2023-05-04T08:29:10.644Z,12.73
2023-05-04T08:31:42.722Z,11.83
2023-05-04T08:34:14.494Z,12.50
2023-05-04T08:36:47.136Z,14.47
2023-05-04T08:39:19.300Z,12.87
2023-05-04T08:41:51.171Z,13.03
2023-05-04T08:44:23.040Z,12.53
2023-05-04T08:46:56.315Z,17.40
2023-05-04T08:49:29.068Z,11.80
2023-05-04T08:52:01.104Z,12.13
2023-05-04T08:54:35.356Z,12.50
2023-05-04T08:57:07.384Z,13.60
2023-05-04T08:59:39.544Z,11.97
2023-05-04T09:02:13.553Z,48.00
2023-05-04T09:04:45.640Z,35.20
2023-05-04T09:07:18.783Z,16.13
2023-05-04T09:09:51.643Z,11.07
2023-05-04T09:12:26.138Z,12.10
2023-05-04T09:14:58.480Z,10.48
2023-05-04T09:17:30.344Z,10.20
2023-05-04T09:20:03.368Z,12.48
2023-05-04T09:22:35.371Z,10.63
2023-05-04T09:25:07.476Z,11.05
2023-05-04T09:27:41.418Z,11.48
2023-05-04T09:30:13.478Z,12.07
2023-05-04T09:32:49.507Z,9.68
2023-05-04T09:35:33.756Z,10.52
2023-05-04T09:38:07.368Z,10.05
2023-05-04T09:40:42.910Z,9.15
2023-05-04T09:43:15.454Z,9.95
2023-05-04T09:45:48.206Z,9.32
2023-05-04T09:48:31.251Z,8.50
2023-05-04T09:51:04.099Z,8.10
2023-05-04T09:53:38.311Z,8.40
2023-05-04T09:56:17.820Z,8.07
2023-05-04T09:58:50.911Z,7.60
2023-05-04T10:01:23.210Z,9.05
2023-05-04T10:03:55.510Z,9.52
2023-05-04T10:06:30.300Z,7.68
2023-05-04T10:09:02.000Z,7.65
2023-05-04T10:11:34.179Z,6.80
2023-05-04T10:14:07.380Z,9.57
2023-05-04T10:16:55.221Z,7.65
2023-05-04T10:19:46.985Z,7.43
2023-05-04T10:23:03.492Z,6.93
2023-05-04T10:25:39.087Z,7.50
2023-05-04T10:28:54.049Z,6.10
2023-05-04T10:31:25.972Z,5.93
2023-05-04T10:33:57.857Z,6.53
2023-05-04T10:36:40.107Z,5.78
2023-05-04T10:39:22.540Z,6.57
2023-05-04T10:42:01.491Z,6.03
2023-05-04T10:44:49.337Z,6.18
2023-05-04T10:47:29.044Z,5.97
2023-05-04T10:50:13.524Z,5.38
2023-05-04T10:52:57.167Z,5.13
2023-05-04T10:55:40.645Z,5.15
2023-05-04T10:58:21.350Z,5.00
2023-05-04T11:00:53.241Z,5.20
2023-05-04T11:03:25.212Z,5.07
2023-05-04T11:05:57.114Z,5.15
2023-05-04T11:08:29.264Z,5.38
2023-05-04T11:11:03.513Z,5.00
2023-05-04T11:13:41.036Z,5.00
2023-05-04T11:16:14.092Z,4.72
2023-05-04T11:18:45.873Z,4.28
2023-05-04T11:21:27.668Z,4.50
2023-05-04T11:24:00.770Z,4.85
2023-05-04T11:26:32.511Z,4.97
2023-05-04T11:29:13.588Z,4.93
2023-05-04T11:31:54.957Z,5.10
2023-05-04T11:34:26.750Z,5.03
2023-05-04T11:36:58.679Z,5.00
2023-05-04T11:39:33.490Z,5.27
2023-05-04T11:42:09.167Z,5.30
2023-05-04T11:44:41.737Z,5.32
2023-05-04T11:47:14.102Z,5.33
2023-05-04T11:49:47.592Z,4.37
2023-05-04T11:52:25.757Z,5.07
2023-05-04T11:54:57.565Z,5.33
2023-05-04T11:57:31.765Z,5.17
2023-05-04T12:00:08.697Z,5.20
2023-05-04T12:02:40.762Z,4.53
2023-05-04T12:05:14.003Z,4.87
2023-05-04T12:07:46.000Z,4.20
2023-05-04T12:10:33.356Z,4.82
2023-05-04T12:13:15.790Z,5.23
2023-05-04T12:15:47.549Z,5.27
2023-05-04T12:18:29.320Z,4.07
2023-05-04T12:21:10.772Z,4.77
2023-05-04T12:23:42.968Z,4.47
2023-05-04T12:26:17.421Z,4.90
2023-05-04T12:28:51.418Z,5.33
2023-05-04T12:31:25.392Z,4.00
2023-05-04T12:33:57.471Z,4.40
2023-05-04T12:36:29.165Z,5.60
2023-05-04T12:39:01.090Z,4.30
2023-05-04T12:41:32.854Z,4.53
2023-05-04T12:44:04.798Z,5.93
2023-05-04T12:46:37.306Z,5.10
2023-05-04T12:49:11.058Z,4.57
2023-05-04T12:51:43.384Z,5.73
2023-05-04T12:54:15.101Z,4.77
2023-05-04T12:56:46.846Z,4.80
2023-05-04T12:59:18.504Z,4.87
2023-05-04T13:01:50.539Z,4.40
2023-05-04T13:04:22.236Z,5.47
2023-05-04T13:06:54.011Z,5.10
2023-05-04T13:09:25.709Z,4.80
2023-05-04T13:11:57.396Z,4.97
2023-05-04T13:14:29.236Z,12.30
2023-05-04T13:17:00.957Z,5.90
2023-05-04T13:19:32.647Z,4.63
2023-05-04T13:22:05.084Z,5.37
2023-05-04T13:24:36.925Z,5.07
2023-05-04T13:27:08.963Z,5.17
2023-05-04T13:29:41.585Z,4.40
2023-05-04T13:32:13.341Z,4.87
2023-05-04T13:34:46.314Z,4.50
2023-05-04T13:37:18.562Z,5.00
2023-05-04T13:39:50.789Z,5.30
2023-05-04T13:42:23.283Z,4.60
2023-05-04T13:44:55.022Z,4.43
2023-05-04T13:47:26.776Z,5.60
2023-05-04T13:49:58.469Z,5.67
2023-05-04T13:52:31.706Z,5.60
2023-05-04T13:55:03.979Z,5.63
2023-05-04T13:57:35.861Z,4.93
2023-05-04T14:00:08.694Z,5.43
2023-05-04T14:02:41.170Z,5.00
2023-05-04T14:05:13.825Z,4.77
2023-05-04T14:07:45.741Z,5.00
2023-05-04T14:10:17.634Z,6.10
2023-05-04T14:12:49.347Z,5.43
2023-05-04T14:15:22.975Z,4.43
2023-05-04T14:17:54.753Z,4.43
2023-05-04T14:20:26.534Z,7.63
2023-05-04T14:22:58.224Z,4.63
2023-05-04T14:25:29.917Z,5.20
2023-05-04T14:28:01.817Z,5.33
2023-05-04T14:30:34.016Z,5.00
2023-05-04T14:33:05.840Z,5.03
2023-05-04T14:35:39.594Z,5.20
2023-05-04T14:38:11.879Z,5.50
2023-05-04T14:40:43.614Z,5.67
2023-05-04T14:43:15.353Z,5.80
2023-05-04T14:45:47.180Z,5.23
2023-05-04T14:48:19.086Z,5.90
2023-05-04T14:50:50.779Z,5.43
2023-05-04T14:53:23.359Z,5.87
2023-05-04T14:55:55.082Z,5.60
2023-05-04T14:58:28.681Z,5.70
2023-05-04T15:01:00.898Z,6.30
2023-05-04T15:03:32.793Z,5.60
2023-05-04T15:06:05.196Z,6.47
2023-05-04T15:08:37.116Z,5.23
2023-05-04T15:11:08.853Z,5.73
2023-05-04T15:13:40.604Z,6.47
2023-05-04T15:16:19.212Z,5.03
2023-05-04T15:18:50.960Z,5.60
2023-05-04T15:21:22.622Z,5.43
2023-05-04T15:23:54.408Z,6.53
2023-05-04T15:26:26.257Z,6.33
2023-05-04T15:28:58.357Z,5.60
2023-05-04T15:31:30.108Z,5.27
2023-05-04T15:34:02.638Z,6.33
2023-05-04T15:36:34.433Z,6.20
2023-05-04T15:39:08.243Z,6.00
2023-05-04T15:41:40.278Z,6.20
2023-05-04T15:44:12.003Z,6.20
2023-05-04T15:46:44.782Z,10.17
2023-05-04T15:49:16.627Z,6.70
2023-05-04T15:51:48.340Z,7.10
2023-05-04T15:54:20.232Z,6.60
2023-05-04T15:56:52.210Z,6.20
2023-05-04T15:59:24.002Z,5.97
2023-05-04T16:01:55.809Z,5.57
2023-05-04T16:04:28.100Z,7.25
2023-05-04T16:06:59.840Z,7.00
2023-05-04T16:09:31.695Z,6.00
2023-05-04T16:12:05.234Z,5.70
2023-05-04T16:14:37.241Z,6.37
2023-05-04T16:17:09.338Z,7.10
2023-05-04T16:19:41.271Z,6.60
2023-05-04T16:22:13.120Z,6.87
2023-05-04T16:24:44.871Z,7.83
2023-05-04T16:27:16.707Z,7.90
2023-05-04T16:29:48.372Z,7.90
2023-05-04T16:32:20.372Z,7.30
2023-05-04T16:34:52.180Z,7.63
2023-05-04T16:37:23.850Z,7.43
2023-05-04T16:39:55.679Z,6.97
2023-05-04T16:42:27.372Z,6.83
2023-05-04T16:45:00.768Z,6.60
2023-05-04T16:47:32.478Z,7.53
2023-05-04T16:50:04.836Z,7.90
2023-05-04T16:52:36.797Z,10.63
2023-05-04T16:55:11.851Z,7.67
2023-05-04T16:57:44.074Z,8.47
2023-05-04T17:00:17.025Z,9.50
2023-05-04T17:02:48.889Z,8.30
2023-05-04T17:05:21.063Z,9.30
2023-05-04T17:07:53.056Z,7.37
2023-05-04T17:10:25.136Z,8.33
2023-05-04T17:12:56.895Z,11.67
2023-05-04T17:15:28.656Z,10.30
2023-05-04T17:18:00.686Z,7.73
2023-05-04T17:20:32.436Z,8.43
2023-05-04T17:23:04.229Z,7.37
2023-05-04T17:25:37.557Z,7.10
2023-05-04T17:28:09.238Z,9.03
2023-05-04T17:30:41.685Z,7.30
2023-05-04T17:33:13.483Z,7.53
2023-05-04T17:35:45.333Z,8.17
2023-05-04T17:38:17.062Z,8.17
2023-05-04T17:40:48.977Z,8.57
2023-05-04T17:43:20.734Z,7.77
2023-05-04T17:45:54.283Z,7.70
2023-05-04T17:48:28.289Z,8.07
2023-05-04T17:51:00.487Z,8.90
2023-05-04T17:53:32.190Z,7.60
2023-05-04T17:56:04.538Z,9.33
2023-05-04T17:58:36.253Z,9.13
2023-05-04T18:01:08.105Z,7.15
2023-05-04T18:03:39.910Z,7.87
2023-05-04T18:06:11.794Z,11.33
2023-05-04T18:08:43.523Z,6.97
2023-05-04T18:11:15.189Z,7.87
2023-05-04T18:13:46.858Z,7.27
2023-05-04T18:16:18.689Z,7.93
2023-05-04T18:18:51.535Z,7.23
2023-05-04T18:21:23.462Z,6.57
2023-05-04T18:23:55.306Z,5.93
2023-05-04T18:26:27.007Z,6.80
2023-05-04T18:29:04.496Z,6.87
2023-05-04T18:31:43.330Z,6.43
2023-05-04T18:34:15.068Z,6.60
2023-05-04T18:36:48.696Z,6.67
2023-05-04T18:39:21.036Z,6.27
2023-05-04T18:41:52.773Z,7.03
2023-05-04T18:44:24.525Z,6.20
2023-05-04T18:46:56.692Z,6.80
2023-05-04T18:49:28.403Z,7.00
2023-05-04T18:52:03.028Z,7.20
2023-05-04T18:54:34.763Z,7.57
2023-05-04T18:57:06.734Z,7.10
2023-05-04T18:59:38.563Z,7.00
2023-05-04T19:02:10.613Z,8.70
2023-05-04T19:04:43.017Z,6.40
2023-05-04T19:07:15.598Z,7.10
2023-05-04T19:09:47.384Z,6.40
2023-05-04T19:12:19.141Z,7.63
2023-05-04T19:14:51.229Z,7.13
2023-05-04T19:17:23.127Z,8.30
2023-05-04T19:19:54.833Z,7.23
2023-05-04T19:22:26.486Z,7.63
2023-05-04T19:24:58.278Z,7.20
2023-05-04T19:27:29.980Z,6.60
2023-05-04T19:30:01.845Z,7.23
2023-05-04T19:32:33.631Z,6.80
2023-05-04T19:35:06.626Z,7.93
2023-05-04T19:37:38.456Z,7.07
2023-05-04T19:40:10.947Z,7.20
2023-05-04T19:42:46.158Z,6.73
2023-05-04T19:45:18.312Z,7.90
2023-05-04T19:47:50.796Z,7.77
2023-05-04T19:50:22.679Z,7.90
2023-05-04T19:52:54.482Z,10.43
2023-05-04T19:55:26.220Z,7.63
2023-05-04T19:57:57.949Z,8.27
2023-05-04T20:00:29.838Z,7.20
2023-05-04T20:03:01.658Z,8.13
2023-05-04T20:05:33.681Z,7.77
2023-05-04T20:08:05.596Z,7.10
2023-05-04T20:10:37.604Z,6.90
2023-05-04T20:13:09.426Z,6.40
2023-05-04T20:15:42.084Z,7.83
2023-05-04T20:18:14.081Z,8.23
2023-05-04T20:20:45.951Z,8.03
2023-05-04T20:23:17.691Z,8.13
2023-05-04T20:25:50.299Z,8.10
2023-05-04T20:28:22.943Z,8.53
2023-05-04T20:30:54.824Z,9.30
2023-05-04T20:33:26.665Z,8.40
2023-05-04T20:35:58.567Z,7.97
2023-05-04T20:38:30.227Z,9.70
2023-05-04T20:41:07.264Z,8.27
2023-05-04T20:43:39.084Z,9.00
2023-05-04T20:46:11.294Z,7.83
2023-05-04T20:48:43.034Z,7.73
2023-05-04T20:51:15.649Z,10.03
2023-05-04T20:53:47.937Z,8.57
2023-05-04T20:56:19.692Z,8.17
2023-05-04T20:58:51.501Z,10.80
2023-05-04T21:01:23.436Z,8.90
2023-05-04T21:03:55.629Z,8.97
2023-05-04T21:06:27.394Z,8.60
2023-05-04T21:08:59.085Z,8.50
2023-05-04T21:11:30.936Z,8.47
2023-05-04T21:14:03.300Z,9.90
2023-05-04T21:16:35.140Z,8.93
2023-05-04T21:19:07.278Z,7.93
2023-05-04T21:21:41.345Z,10.20
2023-05-04T21:24:14.003Z,8.60
2023-05-04T21:26:46.006Z,9.77
2023-05-04T21:29:17.869Z,8.20
2023-05-04T21:31:49.752Z,9.05
2023-05-04T21:34:21.611Z,9.37
2023-05-04T21:36:53.876Z,9.20
2023-05-04T21:39:26.256Z,8.70
2023-05-04T21:41:58.120Z,8.80
2023-05-04T21:44:29.858Z,9.23
2023-05-04T21:47:02.660Z,9.50
2023-05-04T21:49:34.413Z,10.80
2023-05-04T21:52:06.187Z,9.53
2023-05-04T21:54:37.889Z,9.63
2023-05-04T21:57:09.667Z,9.43
2023-05-04T21:59:41.762Z,9.07
2023-05-04T22:02:13.498Z,10.23
2023-05-04T22:04:45.536Z,9.33
2023-05-04T22:07:17.239Z,9.30
2023-05-04T22:09:49.026Z,8.73
2023-05-04T22:12:20.849Z,10.63
2023-05-04T22:14:52.616Z,13.50
2023-05-04T22:17:24.402Z,9.00
2023-05-04T22:19:56.182Z,9.40
2023-05-04T22:22:27.889Z,11.80
2023-05-04T22:24:59.678Z,9.57
2023-05-04T22:27:31.494Z,10.43
2023-05-04T22:30:03.326Z,10.03
2023-05-04T22:32:35.282Z,10.23
2023-05-04T22:35:07.349Z,11.23
2023-05-04T22:37:39.026Z,11.60
2023-05-04T22:40:11.052Z,9.87
2023-05-04T22:42:45.989Z,9.63
2023-05-04T22:45:18.334Z,9.50
2023-05-04T22:47:51.135Z,9.00
2023-05-04T22:50:23.049Z,10.73
2023-05-04T22:52:54.832Z,10.50
2023-05-04T22:55:26.778Z,10.00
2023-05-04T22:57:58.546Z,11.20
2023-05-04T23:00:30.445Z,9.90
2023-05-04T23:03:03.696Z,9.43
2023-05-04T23:05:35.664Z,9.73
2023-05-04T23:08:07.517Z,10.37
2023-05-04T23:10:39.253Z,11.30
2023-05-04T23:13:11.592Z,9.70
2023-05-04T23:15:43.501Z,10.13
2023-05-04T23:18:16.250Z,9.80
2023-05-04T23:20:48.092Z,13.73
2023-05-04T23:23:19.759Z,10.20
2023-05-04T23:25:51.436Z,9.70
2023-05-04T23:28:24.257Z,11.03
2023-05-04T23:30:55.975Z,10.73
2023-05-04T23:33:27.700Z,10.60
2023-05-04T23:35:59.445Z,10.77
2023-05-04T23:38:31.278Z,8.67
2023-05-04T23:41:06.099Z,9.50
2023-05-04T23:43:38.326Z,10.80
2023-05-04T23:46:10.201Z,8.90
2023-05-04T23:48:42.064Z,9.87
2023-05-04T23:51:13.870Z,10.07
2023-05-04T23:53:45.649Z,11.13
2023-05-04T23:56:17.472Z,11.10
2023-05-04T23:58:49.241Z,10.77
